Clima Ilopango International Airport
Currently
Currently
Currently
METAR
MSSS 280925Z 2812/2912 35004KT 9999 SCT023 TX29/2820Z TN19/2912Z FM281800 16006KT 9999 SCT027 FEW037CB FM290000 34003KT 9999 SCT023 FEW037CB SCT060
TAF
MSSS 280925Z 2812/2912 35004KT 9999 SCT023 TX29/2820Z TN19/2912Z FM281800 16006KT 9999 SCT027 FEW037CB FM290000 34003KT 9999 SCT023 FEW037CB SCT060

Cámaras Aeroclub

Norte

Este

Sur

Oeste

AIS/AIP El Salvador

Autoridad de Aviación Civil (AAC) El Salvador

VER DOCUMENTO